Time;durP1;ratioP1;P1;durP2;ratioP2;P2;SDS_P1;SDS_P2;PMS_P1;PMS_P2;Temp;Humidity;BMP_temperature;BMP_pressure;BME280_temperature;BME280_humidity;BME280_pressure;Samples;Min_cycle;Max_cycle;Signal;HPM_P1;HPM_P2
2023/07/05 00:01:35;;;;;;;11.25;7.57;;;;;;;;;;5031935;28;20044;-72
2023/07/05 00:04:02;;;;;;;10.38;6.78;;;;;;;;;;5031923;28;20017;-72
2023/07/05 00:06:28;;;;;;;11.00;7.43;;;;;;;;;;5031738;28;20033;-72
2023/07/05 00:08:54;;;;;;;9.98;7.30;;;;;;;;;;5031652;28;20022;-72
2023/07/05 00:11:21;;;;;;;12.68;7.13;;;;;;;;;;5031819;28;20055;-71
2023/07/05 00:13:47;;;;;;;10.23;6.82;;;;;;;;;;5031685;28;20409;-72
2023/07/05 00:16:13;;;;;;;12.75;7.03;;;;;;;;;;5032185;28;20021;-72
2023/07/05 00:18:40;;;;;;;8.57;7.10;;;;;;;;;;5035800;28;20029;-72
2023/07/05 00:21:07;;;;;;;9.27;7.13;;;;;;;;;;5035484;28;20029;-71
2023/07/05 00:23:34;;;;;;;11.82;7.50;;;;;;;;;;5035645;28;20029;-71
2023/07/05 00:26:01;;;;;;;12.63;7.80;;;;;;;;;;5034091;28;20071;-72
2023/07/05 00:28:27;;;;;;;10.82;7.15;;;;;;;;;;5035498;28;20060;-72
2023/07/05 00:30:53;;;;;;;11.98;7.07;;;;;;;;;;5034228;28;20033;-72
2023/07/05 00:33:20;;;;;;;13.35;7.40;;;;;;;;;;5035607;28;20026;-71
2023/07/05 00:35:50;;;;;;;8.38;6.68;;;;;;;;;;5035333;28;20030;-72
2023/07/05 00:38:17;;;;;;;10.13;7.80;;;;;;;;;;5035571;28;20027;-72
2023/07/05 00:40:44;;;;;;;10.07;7.05;;;;;;;;;;5035175;28;20100;-72
2023/07/05 00:43:11;;;;;;;10.63;6.90;;;;;;;;;;5035304;28;20044;-72
2023/07/05 00:45:40;;;;;;;9.90;6.82;;;;;;;;;;5035275;28;20071;-72
2023/07/05 00:48:09;;;;;;;10.93;6.95;;;;;;;;;;5035235;28;20051;-72
2023/07/05 00:50:38;;;;;;;8.80;6.78;;;;;;;;;;5035054;28;20025;-72
2023/07/05 00:53:05;;;;;;;11.90;7.15;;;;;;;;;;5034818;28;20393;-72
2023/07/05 00:55:32;;;;;;;8.65;6.88;;;;;;;;;;5035309;28;20032;-72
2023/07/05 00:57:58;;;;;;;10.48;6.93;;;;;;;;;;5035205;28;20025;-72
2023/07/05 01:00:25;;;;;;;9.85;6.80;;;;;;;;;;5035165;28;20071;-72
2023/07/05 01:02:55;;;;;;;10.27;6.70;;;;;;;;;;5035242;28;20098;-72
2023/07/05 01:05:22;;;;;;;9.00;7.13;;;;;;;;;;5035191;28;20022;-72
2023/07/05 01:07:48;;;;;;;7.93;6.50;;;;;;;;;;5034354;28;20037;-72
2023/07/05 01:10:20;;;;;;;9.10;6.75;;;;;;;;;;5034806;28;20392;-72
2023/07/05 01:13:03;;;;;;;10.55;6.90;;;;;;;;;;5034755;28;20021;-72
2023/07/05 01:15:32;;;;;;;8.25;6.45;;;;;;;;;;5034609;28;20547;-72
2023/07/05 01:17:59;;;;;;;8.50;6.25;;;;;;;;;;5034588;28;20039;-71
2023/07/05 01:20:32;;;;;;;12.60;6.75;;;;;;;;;;5034296;28;20043;-72
2023/07/05 01:23:17;;;;;;;8.65;6.10;;;;;;;;;;5034186;28;20029;-72
2023/07/05 01:25:55;;;;;;;7.07;5.75;;;;;;;;;;5034405;28;20371;-72
2023/07/05 01:28:44;;;;;;;15.20;6.28;;;;;;;;;;5033754;28;20023;-72
2023/07/05 01:31:26;;;;;;;7.55;5.78;;;;;;;;;;5034351;28;20044;-72
2023/07/05 01:33:55;;;;;;;8.77;6.20;;;;;;;;;;5033366;28;20036;-72
2023/07/05 01:36:22;;;;;;;8.07;5.65;;;;;;;;;;5034629;28;20047;-72
2023/07/05 01:38:48;;;;;;;7.90;6.22;;;;;;;;;;5033971;28;20025;-72
2023/07/05 01:41:15;;;;;;;7.88;5.80;;;;;;;;;;5034189;28;20034;-72
2023/07/05 01:43:42;;;;;;;8.10;5.65;;;;;;;;;;5034099;28;20032;-72
2023/07/05 01:46:17;;;;;;;8.90;6.15;;;;;;;;;;5034051;28;20051;-72
2023/07/05 01:48:43;;;;;;;7.55;5.78;;;;;;;;;;5034200;28;20478;-72
2023/07/05 01:51:39;;;;;;;8.90;5.43;;;;;;;;;;5033427;28;20033;-71
2023/07/05 01:54:14;;;;;;;7.72;5.50;;;;;;;;;;5017218;28;20399;-72
2023/07/05 01:56:50;;;;;;;6.50;5.20;;;;;;;;;;5033863;28;20385;-72
2023/07/05 01:59:21;;;;;;;6.93;5.32;;;;;;;;;;5033913;28;20020;-72
2023/07/05 02:01:48;;;;;;;8.90;5.70;;;;;;;;;;5033778;28;20034;-72
2023/07/05 02:04:14;;;;;;;8.70;5.32;;;;;;;;;;5033688;28;20502;-72
2023/07/05 02:06:41;;;;;;;7.15;5.28;;;;;;;;;;5033396;28;20037;-71
2023/07/05 02:09:08;;;;;;;7.90;4.53;;;;;;;;;;5033595;28;20032;-72
2023/07/05 02:11:34;;;;;;;7.05;4.15;;;;;;;;;;5033727;28;20028;-72
2023/07/05 02:14:00;;;;;;;6.97;4.22;;;;;;;;;;5033867;28;20074;-71
2023/07/05 02:16:27;;;;;;;8.38;4.50;;;;;;;;;;5033497;28;20022;-72
2023/07/05 02:18:53;;;;;;;4.82;3.92;;;;;;;;;;5033326;28;20391;-72
2023/07/05 02:21:19;;;;;;;6.85;4.15;;;;;;;;;;5033028;28;20037;-72
2023/07/05 02:23:46;;;;;;;5.10;3.60;;;;;;;;;;5033088;28;20405;-72
2023/07/05 02:26:12;;;;;;;5.75;3.63;;;;;;;;;;5033273;28;20032;-71
2023/07/05 02:28:38;;;;;;;5.22;3.85;;;;;;;;;;5033826;28;20021;-72
2023/07/05 02:31:06;;;;;;;4.32;3.85;;;;;;;;;;5033195;28;20471;-72
2023/07/05 02:33:34;;;;;;;4.82;3.70;;;;;;;;;;5033027;28;20025;-72
2023/07/05 02:36:07;;;;;;;7.20;4.22;;;;;;;;;;5032734;28;20022;-72
2023/07/05 02:38:33;;;;;;;6.90;3.85;;;;;;;;;;5033330;28;20021;-72
2023/07/05 02:41:00;;;;;;;4.57;3.53;;;;;;;;;;5032940;28;20025;-72
2023/07/05 02:43:26;;;;;;;7.20;3.78;;;;;;;;;;5033026;28;20482;-72
2023/07/05 02:45:52;;;;;;;6.30;3.45;;;;;;;;;;5032924;28;20030;-72
2023/07/05 02:48:19;;;;;;;7.97;4.03;;;;;;;;;;5032927;28;20390;-71
2023/07/05 02:50:45;;;;;;;5.88;3.63;;;;;;;;;;5032523;28;20022;-72
2023/07/05 02:53:11;;;;;;;6.28;3.50;;;;;;;;;;5032875;28;20033;-72
2023/07/05 02:55:37;;;;;;;6.80;3.70;;;;;;;;;;5032496;28;20037;-72
2023/07/05 02:58:04;;;;;;;5.18;3.83;;;;;;;;;;5032800;28;20014;-71
2023/07/05 03:00:31;;;;;;;5.78;3.22;;;;;;;;;;5032655;28;20033;-72
2023/07/05 03:02:58;;;;;;;5.95;3.72;;;;;;;;;;5032757;28;20462;-72
2023/07/05 03:05:24;;;;;;;4.90;3.45;;;;;;;;;;5032595;28;20025;-72
2023/07/05 03:07:51;;;;;;;6.53;3.67;;;;;;;;;;5032482;28;20033;-72
2023/07/05 03:10:17;;;;;;;5.80;3.80;;;;;;;;;;5032382;28;20018;-72
2023/07/05 03:12:43;;;;;;;7.32;3.78;;;;;;;;;;5031344;28;20397;-72
2023/07/05 03:15:10;;;;;;;5.10;3.53;;;;;;;;;;5032523;28;20029;-72
2023/07/05 03:17:36;;;;;;;5.82;3.45;;;;;;;;;;5032438;28;20026;-72
2023/07/05 03:20:03;;;;;;;6.20;3.47;;;;;;;;;;5032005;28;20044;-71
2023/07/05 03:22:29;;;;;;;5.38;3.58;;;;;;;;;;5032126;28;20049;-72
2023/07/05 03:24:55;;;;;;;4.43;3.53;;;;;;;;;;5032196;28;20091;-72
2023/07/05 03:27:22;;;;;;;6.63;3.47;;;;;;;;;;5032583;28;20036;-71
2023/07/05 03:29:48;;;;;;;7.40;4.13;;;;;;;;;;5032120;28;20028;-72
2023/07/05 03:32:15;;;;;;;6.63;3.63;;;;;;;;;;5032467;28;20026;-72
2023/07/05 03:34:41;;;;;;;3.90;3.50;;;;;;;;;;5031709;28;20032;-72
2023/07/05 03:37:07;;;;;;;3.97;3.17;;;;;;;;;;5030738;28;20025;-71
2023/07/05 03:39:34;;;;;;;4.70;3.17;;;;;;;;;;5032538;28;20013;-72
2023/07/05 03:42:02;;;;;;;7.57;3.40;;;;;;;;;;5032109;28;20041;-72
2023/07/05 03:44:28;;;;;;;4.90;3.15;;;;;;;;;;5032385;28;20025;-72
2023/07/05 03:46:54;;;;;;;4.22;2.53;;;;;;;;;;5031992;28;20027;-72
2023/07/05 03:49:21;;;;;;;3.72;2.70;;;;;;;;;;5031946;28;20047;-71
2023/07/05 03:51:47;;;;;;;2.88;2.10;;;;;;;;;;5031693;28;20030;-72
2023/07/05 03:54:13;;;;;;;3.78;2.50;;;;;;;;;;5032238;28;20013;-72
2023/07/05 03:56:40;;;;;;;5.88;2.25;;;;;;;;;;5031999;28;20025;-72
2023/07/05 03:59:06;;;;;;;6.05;2.38;;;;;;;;;;5032037;28;20038;-72
2023/07/05 04:01:33;;;;;;;3.25;2.25;;;;;;;;;;5031422;28;20037;-72
2023/07/05 04:04:00;;;;;;;4.03;2.33;;;;;;;;;;5032003;28;20377;-72
2023/07/05 04:06:28;;;;;;;3.35;2.55;;;;;;;;;;5032004;28;20029;-72
2023/07/05 04:08:55;;;;;;;4.40;2.25;;;;;;;;;;5031577;28;20036;-72
2023/07/05 04:11:21;;;;;;;3.55;2.05;;;;;;;;;;5032188;28;20034;-72
2023/07/05 04:13:48;;;;;;;4.05;2.75;;;;;;;;;;5031748;28;20025;-71
2023/07/05 04:16:16;;;;;;;3.03;2.50;;;;;;;;;;5031743;28;20018;-72
2023/07/05 04:18:43;;;;;;;6.13;2.83;;;;;;;;;;5031491;28;20021;-72
2023/07/05 04:21:10;;;;;;;3.72;2.42;;;;;;;;;;5031530;28;20037;-72
2023/07/05 04:23:37;;;;;;;4.82;2.83;;;;;;;;;;5031638;28;20410;-72
2023/07/05 04:26:07;;;;;;;2.63;2.33;;;;;;;;;;5031683;28;20021;-72
2023/07/05 04:28:34;;;;;;;3.50;2.60;;;;;;;;;;5030315;28;20037;-72
2023/07/05 04:31:01;;;;;;;4.55;2.10;;;;;;;;;;5031233;28;20409;-72
2023/07/05 04:33:27;;;;;;;3.78;2.10;;;;;;;;;;5031586;28;20025;-72
2023/07/05 04:35:55;;;;;;;4.63;2.50;;;;;;;;;;5031560;28;20024;-72
2023/07/05 04:38:22;;;;;;;3.60;2.40;;;;;;;;;;5031511;28;20026;-72
2023/07/05 04:40:48;;;;;;;7.78;2.97;;;;;;;;;;5031483;28;20029;-72
2023/07/05 04:43:15;;;;;;;6.50;2.83;;;;;;;;;;5031535;28;20025;-72
2023/07/05 04:45:41;;;;;;;7.13;3.20;;;;;;;;;;5031027;28;20527;-72
2023/07/05 04:48:07;;;;;;;8.75;3.40;;;;;;;;;;5031845;28;20017;-72
2023/07/05 04:50:34;;;;;;;6.60;3.00;;;;;;;;;;5031291;28;20400;-71
2023/07/05 04:53:00;;;;;;;4.40;2.97;;;;;;;;;;5031382;28;20040;-72
2023/07/05 04:55:26;;;;;;;4.53;2.90;;;;;;;;;;5031653;28;20018;-72
2023/07/05 04:57:53;;;;;;;4.20;2.90;;;;;;;;;;5031216;28;20021;-72
2023/07/05 05:00:19;;;;;;;4.47;2.83;;;;;;;;;;5031062;28;20041;-72
2023/07/05 05:02:46;;;;;;;4.15;2.88;;;;;;;;;;5031385;28;20040;-72
2023/07/05 05:05:12;;;;;;;5.03;3.00;;;;;;;;;;5034559;28;20485;-71
2023/07/05 05:07:38;;;;;;;6.75;2.95;;;;;;;;;;5034801;28;20025;-72
2023/07/05 05:10:05;;;;;;;5.70;2.80;;;;;;;;;;5033836;28;20046;-72
2023/07/05 05:12:31;;;;;;;6.43;2.83;;;;;;;;;;5034820;28;20030;-71
2023/07/05 05:14:57;;;;;;;5.03;2.80;;;;;;;;;;5034335;28;20031;-72
2023/07/05 05:17:25;;;;;;;10.43;3.08;;;;;;;;;;5034984;28;20029;-72
2023/07/05 05:19:52;;;;;;;4.97;2.58;;;;;;;;;;5034510;28;20041;-71
2023/07/05 05:22:18;;;;;;;5.43;3.15;;;;;;;;;;5034381;28;20111;-72
2023/07/05 05:24:44;;;;;;;4.25;2.65;;;;;;;;;;5034553;28;20026;-72
2023/07/05 05:27:10;;;;;;;5.28;2.75;;;;;;;;;;5034271;28;20379;-72
2023/07/05 05:29:37;;;;;;;3.85;2.92;;;;;;;;;;5034469;28;20025;-72
2023/07/05 05:32:03;;;;;;;4.60;2.75;;;;;;;;;;5034468;28;20025;-71
2023/07/05 05:34:30;;;;;;;3.97;3.13;;;;;;;;;;5034277;28;20075;-72
2023/07/05 05:36:56;;;;;;;4.65;2.95;;;;;;;;;;5034440;28;20035;-72
2023/07/05 05:39:26;;;;;;;4.45;2.90;;;;;;;;;;5034566;28;20171;-72
2023/07/05 05:41:52;;;;;;;5.18;2.95;;;;;;;;;;5032959;28;20029;-71
2023/07/05 05:44:19;;;;;;;4.60;3.13;;;;;;;;;;5033866;28;20030;-72
2023/07/05 05:46:45;;;;;;;3.58;2.85;;;;;;;;;;5034106;28;20025;-71
2023/07/05 05:49:11;;;;;;;3.67;2.72;;;;;;;;;;5033136;28;20033;-72
2023/07/05 05:51:38;;;;;;;8.50;3.22;;;;;;;;;;5033836;28;20031;-72
2023/07/05 05:54:05;;;;;;;5.00;3.10;;;;;;;;;;5034186;28;20040;-72
2023/07/05 05:56:31;;;;;;;4.05;3.03;;;;;;;;;;5033914;28;20024;-71
2023/07/05 05:58:57;;;;;;;5.30;2.80;;;;;;;;;;5033499;28;20029;-72
2023/07/05 06:01:23;;;;;;;5.78;3.75;;;;;;;;;;5033971;28;20030;-72
2023/07/05 06:03:50;;;;;;;3.97;2.80;;;;;;;;;;5025385;28;20032;-73
2023/07/05 06:06:16;;;;;;;7.22;2.42;;;;;;;;;;5023360;28;20035;-72
2023/07/05 06:08:43;;;;;;;5.13;2.90;;;;;;;;;;5023821;28;20490;-72
2023/07/05 06:11:09;;;;;;;3.42;2.35;;;;;;;;;;5030653;28;20025;-72
2023/07/05 06:13:35;;;;;;;4.25;2.85;;;;;;;;;;5030963;28;20024;-72
2023/07/05 06:16:03;;;;;;;5.30;2.53;;;;;;;;;;5020052;28;20425;-73
2023/07/05 06:18:29;;;;;;;6.88;2.65;;;;;;;;;;5030179;28;20041;-74
2023/07/05 06:20:56;;;;;;;5.43;2.72;;;;;;;;;;5021100;28;20054;-73
2023/07/05 06:23:22;;;;;;;4.05;2.33;;;;;;;;;;5026853;28;20048;-74
2023/07/05 06:25:49;;;;;;;4.20;2.63;;;;;;;;;;5026405;28;20022;-72
2023/07/05 06:28:19;;;;;;;3.65;2.50;;;;;;;;;;5029680;28;20029;-72
2023/07/05 06:30:46;;;;;;;6.00;2.58;;;;;;;;;;5024106;28;20363;-73
2023/07/05 06:33:13;;;;;;;7.18;2.50;;;;;;;;;;5022270;28;20029;-73
2023/07/05 06:35:39;;;;;;;5.00;2.60;;;;;;;;;;5029460;28;20531;-73
2023/07/05 06:38:08;;;;;;;5.55;2.15;;;;;;;;;;5034526;28;20035;-73
2023/07/05 06:40:35;;;;;;;4.80;2.58;;;;;;;;;;5024920;28;20033;-73
2023/07/05 06:43:02;;;;;;;3.85;2.20;;;;;;;;;;5029981;28;20029;-73
2023/07/05 06:45:28;;;;;;;5.20;2.60;;;;;;;;;;5027993;28;20033;-72
2023/07/05 06:47:54;;;;;;;5.55;2.17;;;;;;;;;;5026306;28;20040;-72
2023/07/05 06:50:20;;;;;;;3.95;2.05;;;;;;;;;;5028477;28;20439;-73
2023/07/05 06:52:47;;;;;;;4.07;2.25;;;;;;;;;;5022638;28;20025;-74
2023/07/05 06:55:13;;;;;;;4.40;2.22;;;;;;;;;;5018393;28;20033;-73
2023/07/05 06:57:40;;;;;;;4.10;2.40;;;;;;;;;;5022742;28;20024;-73
2023/07/05 07:00:07;;;;;;;4.40;2.25;;;;;;;;;;5015846;28;20030;-73
2023/07/05 07:02:33;;;;;;;5.65;2.20;;;;;;;;;;5020925;28;20037;-72
2023/07/05 07:05:00;;;;;;;3.10;2.28;;;;;;;;;;5021793;28;20393;-72
2023/07/05 07:07:27;;;;;;;3.38;1.90;;;;;;;;;;5015007;28;20040;-73
2023/07/05 07:09:53;;;;;;;4.10;2.20;;;;;;;;;;5023635;28;20478;-72
2023/07/05 07:12:20;;;;;;;2.90;1.90;;;;;;;;;;5021730;28;20044;-73
2023/07/05 07:14:46;;;;;;;2.40;1.90;;;;;;;;;;5029941;28;20119;-73
2023/07/05 07:17:12;;;;;;;2.92;1.98;;;;;;;;;;5026109;28;20030;-72
2023/07/05 07:19:39;;;;;;;3.60;1.80;;;;;;;;;;5029693;28;20045;-72
2023/07/05 07:22:05;;;;;;;5.40;1.77;;;;;;;;;;5029899;28;20045;-73
2023/07/05 07:24:32;;;;;;;4.93;1.83;;;;;;;;;;5031098;28;20036;-72
2023/07/05 07:26:58;;;;;;;3.40;1.77;;;;;;;;;;5029222;28;20018;-73
2023/07/05 07:29:24;;;;;;;3.17;1.70;;;;;;;;;;5029630;28;20021;-73
2023/07/05 07:31:51;;;;;;;3.40;2.10;;;;;;;;;;5031182;28;20035;-72
2023/07/05 07:34:17;;;;;;;3.75;2.10;;;;;;;;;;5023227;28;20025;-72
2023/07/05 07:36:45;;;;;;;4.72;1.80;;;;;;;;;;5014272;28;20033;-72
2023/07/05 07:39:11;;;;;;;4.55;2.00;;;;;;;;;;5012399;28;20026;-72
2023/07/05 07:41:38;;;;;;;3.45;1.65;;;;;;;;;;5025287;28;20041;-72
2023/07/05 07:44:06;;;;;;;4.13;2.13;;;;;;;;;;5014851;28;20030;-73
2023/07/05 07:46:32;;;;;;;3.97;2.00;;;;;;;;;;5014659;28;20026;-72
2023/07/05 07:48:59;;;;;;;5.40;1.85;;;;;;;;;;5028679;28;20381;-72
2023/07/05 07:51:27;;;;;;;2.30;1.67;;;;;;;;;;5030335;28;20025;-73
2023/07/05 07:53:54;;;;;;;3.88;3.13;;;;;;;;;;5030827;28;20033;-72
2023/07/05 07:56:21;;;;;;;4.82;1.85;;;;;;;;;;5016642;28;20014;-73
2023/07/05 07:58:49;;;;;;;3.13;1.98;;;;;;;;;;5030529;28;20055;-73
2023/07/05 08:01:15;;;;;;;2.78;1.88;;;;;;;;;;5030679;28;20042;-73
2023/07/05 08:03:41;;;;;;;7.20;1.90;;;;;;;;;;5031209;28;20029;-72
2023/07/05 08:06:08;;;;;;;5.32;1.60;;;;;;;;;;5031125;28;20051;-73
2023/07/05 08:08:35;;;;;;;5.18;2.20;;;;;;;;;;5030429;28;20043;-72
2023/07/05 08:11:05;;;;;;;2.38;2.00;;;;;;;;;;5030546;28;20028;-72
2023/07/05 08:13:31;;;;;;;1.95;1.40;;;;;;;;;;5030802;28;20136;-72
2023/07/05 08:15:58;;;;;;;2.35;1.70;;;;;;;;;;5030639;28;20037;-73
2023/07/05 08:18:25;;;;;;;5.75;1.92;;;;;;;;;;5030485;28;20034;-74
2023/07/05 08:20:52;;;;;;;2.90;1.42;;;;;;;;;;5030383;28;20045;-72
2023/07/05 08:23:19;;;;;;;5.15;1.58;;;;;;;;;;5025949;28;20030;-72
2023/07/05 08:25:45;;;;;;;4.45;1.20;;;;;;;;;;5030648;28;20031;-75
2023/07/05 08:28:13;;;;;;;1.85;1.08;;;;;;;;;;5030956;28;20385;-72
2023/07/05 08:30:40;;;;;;;5.72;1.20;;;;;;;;;;5031221;28;20385;-74
2023/07/05 08:33:09;;;;;;;2.83;1.10;;;;;;;;;;5022473;28;20030;-72
2023/07/05 08:35:35;;;;;;;2.05;1.15;;;;;;;;;;5011470;28;20026;-74
2023/07/05 08:38:01;;;;;;;4.28;1.17;;;;;;;;;;5029571;28;20031;-70
2023/07/05 08:40:33;;;;;;;1.50;1.20;;;;;;;;;;5035176;28;20033;-75
2023/07/05 08:43:03;;;;;;;4.57;0.82;;;;;;;;;;5034945;28;20036;-77
2023/07/05 08:45:33;;;;;;;1.45;1.00;;;;;;;;;;5035021;28;20034;-76
2023/07/05 08:48:02;;;;;;;1.08;0.90;;;;;;;;;;5030453;28;20036;-72
2023/07/05 08:50:34;;;;;;;2.35;1.00;;;;;;;;;;5024420;28;20032;-73
2023/07/05 08:53:04;;;;;;;2.00;1.38;;;;;;;;;;5030860;28;20393;-75
2023/07/05 08:55:46;;;;;;;1.75;1.05;;;;;;;;;;5032785;28;20029;-77
2023/07/05 08:58:14;;;;;;;1.98;0.90;;;;;;;;;;5029881;28;20033;-74
2023/07/05 09:00:45;;;;;;;7.45;1.10;;;;;;;;;;5026569;28;20025;-74
2023/07/05 09:03:12;;;;;;;4.22;1.08;;;;;;;;;;5027899;28;20029;-75
2023/07/05 09:05:41;;;;;;;3.08;1.23;;;;;;;;;;5028732;28;20024;-76
2023/07/05 09:10:46;;;;;;;2.55;0.93;;;;;;;;;;5736797;23;20052;-76
2023/07/05 09:13:42;;;;;;;2.60;1.13;;;;;;;;;;5036077;28;20641;-73
2023/07/05 09:16:20;;;;;;;1.73;0.90;;;;;;;;;;5003458;28;20052;-76
2023/07/05 09:19:13;;;;;;;2.58;1.35;;;;;;;;;;5018992;28;20026;-77
2023/07/05 09:21:46;;;;;;;4.90;1.40;;;;;;;;;;4910491;29;20464;-76
2023/07/05 09:24:22;;;;;;;1.23;1.13;;;;;;;;;;4924854;29;20084;-73
2023/07/05 09:26:59;;;;;;;2.65;1.13;;;;;;;;;;4926933;29;20043;-73
2023/07/05 09:29:34;;;;;;;2.40;1.13;;;;;;;;;;4931223;29;20032;-74
2023/07/05 09:32:07;;;;;;;2.63;1.10;;;;;;;;;;4931767;29;20044;-74
2023/07/05 09:34:33;;;;;;;1.73;1.40;;;;;;;;;;4929557;29;20042;-73
2023/07/05 09:37:00;;;;;;;2.10;1.15;;;;;;;;;;4930221;29;20432;-75
2023/07/05 09:39:31;;;;;;;3.40;1.30;;;;;;;;;;4915195;29;20036;-74
2023/07/05 09:41:59;;;;;;;2.38;1.35;;;;;;;;;;4916613;29;20527;-74
2023/07/05 09:44:25;;;;;;;2.30;1.50;;;;;;;;;;4914735;29;20798;-75
2023/07/05 09:46:52;;;;;;;1.67;1.40;;;;;;;;;;4925833;29;20028;-74
2023/07/05 09:49:20;;;;;;;1.48;1.20;;;;;;;;;;4927641;29;20032;-74
2023/07/05 09:51:46;;;;;;;1.67;1.58;;;;;;;;;;4930110;29;20500;-74
2023/07/05 09:54:17;;;;;;;5.65;1.75;;;;;;;;;;4930568;29;20425;-74
2023/07/05 09:56:55;;;;;;;6.15;1.38;;;;;;;;;;4929356;29;20023;-73
2023/07/05 09:59:23;;;;;;;1.92;1.70;;;;;;;;;;5020061;28;20048;-74
2023/07/05 10:01:54;;;;;;;1.40;1.30;;;;;;;;;;5028715;28;20039;-74
2023/07/05 10:04:26;;;;;;;2.28;1.52;;;;;;;;;;5024321;28;20545;-74
2023/07/05 10:06:53;;;;;;;2.05;1.60;;;;;;;;;;5005115;28;20035;-74
2023/07/05 10:09:21;;;;;;;1.90;1.70;;;;;;;;;;5004047;28;20022;-74
2023/07/05 10:11:49;;;;;;;2.53;1.88;;;;;;;;;;5012939;28;20042;-74
2023/07/05 10:14:17;;;;;;;1.83;1.30;;;;;;;;;;5016125;28;20389;-74
2023/07/05 10:16:45;;;;;;;1.92;1.70;;;;;;;;;;4995591;28;20028;-74
2023/07/05 10:19:21;;;;;;;2.30;1.42;;;;;;;;;;5012703;28;20479;-74
2023/07/05 10:21:59;;;;;;;2.30;1.38;;;;;;;;;;5012754;28;20032;-75
2023/07/05 10:24:27;;;;;;;7.15;1.40;;;;;;;;;;5012519;28;20030;-74
2023/07/05 10:27:01;;;;;;;1.55;1.45;;;;;;;;;;5013225;28;20044;-75
2023/07/05 10:29:28;;;;;;;4.00;1.38;;;;;;;;;;5013159;28;20028;-74
2023/07/05 10:31:57;;;;;;;1.55;1.45;;;;;;;;;;5013048;28;20033;-74
2023/07/05 10:34:25;;;;;;;1.77;1.50;;;;;;;;;;5012927;28;20022;-75
2023/07/05 10:36:52;;;;;;;1.45;1.30;;;;;;;;;;5013244;28;20470;-74
2023/07/05 10:39:22;;;;;;;2.10;1.52;;;;;;;;;;5012859;28;20032;-74
2023/07/05 10:41:51;;;;;;;4.85;1.58;;;;;;;;;;4995181;28;20042;-74
2023/07/05 10:44:24;;;;;;;2.65;1.42;;;;;;;;;;5013059;28;20042;-74
2023/07/05 10:46:51;;;;;;;1.65;1.42;;;;;;;;;;5013028;28;20040;-75
2023/07/05 10:49:19;;;;;;;5.43;1.40;;;;;;;;;;5027386;28;20029;-74
2023/07/05 10:51:49;;;;;;;3.67;1.45;;;;;;;;;;5032620;28;20500;-74
2023/07/05 10:54:22;;;;;;;3.35;1.40;;;;;;;;;;5032461;28;20027;-74
2023/07/05 10:56:48;;;;;;;1.83;1.30;;;;;;;;;;5032288;28;20029;-74
2023/07/05 10:59:21;;;;;;;1.25;1.10;;;;;;;;;;5032659;28;20028;-74
2023/07/05 11:01:59;;;;;;;1.50;1.40;;;;;;;;;;5031520;28;20037;-74
2023/07/05 11:04:28;;;;;;;1.58;1.48;;;;;;;;;;5032520;28;20034;-74
2023/07/05 11:06:54;;;;;;;2.15;1.13;;;;;;;;;;5032442;28;20017;-74
2023/07/05 11:09:21;;;;;;;1.70;1.15;;;;;;;;;;5032178;28;20408;-74
2023/07/05 11:11:57;;;;;;;1.40;1.30;;;;;;;;;;5010863;28;20066;-74
2023/07/05 11:14:24;;;;;;;1.40;1.27;;;;;;;;;;5008337;28;20026;-74
2023/07/05 11:16:51;;;;;;;1.27;0.93;;;;;;;;;;4993195;28;20493;-73
2023/07/05 11:19:21;;;;;;;1.88;1.20;;;;;;;;;;4992735;28;20034;-74
2023/07/05 11:21:48;;;;;;;1.30;1.20;;;;;;;;;;4991534;28;20548;-74
2023/07/05 11:24:38;;;;;;;5.70;1.17;;;;;;;;;;4992482;28;20508;-74
2023/07/05 11:27:04;;;;;;;;;;;;;;;;;;4985637;28;20049;-74
2023/07/05 11:29:33;;;;;;;5.75;1.05;;;;;;;;;;4992807;28;19910;-74
2023/07/05 11:32:00;;;;;;;2.05;1.60;;;;;;;;;;4992669;28;20056;-74
2023/07/05 11:34:26;;;;;;;1.63;0.90;;;;;;;;;;4992594;28;20040;-73
2023/07/05 11:36:54;;;;;;;1.48;1.10;;;;;;;;;;4992680;28;20022;-74
2023/07/05 11:39:32;;;;;;;1.92;1.17;;;;;;;;;;4987922;28;20038;-74
2023/07/05 11:42:24;;;;;;;3.33;1.00;;;;;;;;;;4987611;28;20031;-74
2023/07/05 11:45:10;;;;;;;5.90;0.90;;;;;;;;;;4990020;28;20030;-74
2023/07/05 11:47:38;;;;;;;0.80;0.80;;;;;;;;;;4967838;28;20025;-73
2023/07/05 11:50:06;;;;;;;3.05;1.02;;;;;;;;;;4990763;28;20026;-74
2023/07/05 11:52:42;;;;;;;1.40;1.10;;;;;;;;;;4982665;28;21877;-74
2023/07/05 11:55:19;;;;;;;5.28;1.58;;;;;;;;;;4976682;28;20022;-74
2023/07/05 11:57:45;;;;;;;2.97;0.98;;;;;;;;;;4983702;28;20033;-74
2023/07/05 12:00:18;;;;;;;1.65;1.20;;;;;;;;;;4988784;28;20457;-74
2023/07/05 12:02:50;;;;;;;1.02;0.93;;;;;;;;;;4983423;28;20039;-73
2023/07/05 12:05:18;;;;;;;1.83;1.25;;;;;;;;;;4986968;28;20039;-74
2023/07/05 12:07:47;;;;;;;2.50;1.10;;;;;;;;;;4989183;28;20029;-74
2023/07/05 12:10:25;;;;;;;1.33;1.00;;;;;;;;;;4989491;28;20041;-74
2023/07/05 12:12:52;;;;;;;1.58;1.02;;;;;;;;;;5031707;28;20456;-74
2023/07/05 12:15:18;;;;;;;2.08;1.00;;;;;;;;;;5035096;28;20037;-73
2023/07/05 12:17:45;;;;;;;1.13;0.80;;;;;;;;;;5017644;28;20028;-74
2023/07/05 12:20:18;;;;;;;2.03;0.95;;;;;;;;;;5031075;28;20014;-74
2023/07/05 12:22:44;;;;;;;1.10;0.80;;;;;;;;;;5000558;28;20033;-74
2023/07/05 12:25:11;;;;;;;2.38;0.85;;;;;;;;;;5034057;28;20068;-73
2023/07/05 12:27:37;;;;;;;2.28;1.33;;;;;;;;;;5016409;28;20032;-74
2023/07/05 12:30:04;;;;;;;1.48;1.08;;;;;;;;;;5031136;28;20024;-74
2023/07/05 12:32:31;;;;;;;2.05;0.80;;;;;;;;;;5031024;28;20493;-74
2023/07/05 12:35:10;;;;;;;1.13;0.98;;;;;;;;;;5031753;28;20086;-74
2023/07/05 12:37:36;;;;;;;2.72;1.00;;;;;;;;;;5032287;28;20025;-74
2023/07/05 12:40:22;;;;;;;1.30;1.20;;;;;;;;;;5014427;28;20010;-74
2023/07/05 12:42:48;;;;;;;2.35;1.17;;;;;;;;;;5031650;28;20511;-73
2023/07/05 12:45:16;;;;;;;1.42;0.90;;;;;;;;;;5030922;28;20035;-72
2023/07/05 12:47:43;;;;;;;1.10;1.00;;;;;;;;;;5035146;28;20055;-73
2023/07/05 12:50:10;;;;;;;1.70;0.90;;;;;;;;;;5033029;28;20031;-74
2023/07/05 12:52:36;;;;;;;1.10;1.00;;;;;;;;;;5027317;28;20485;-74
2023/07/05 12:55:03;;;;;;;1.27;1.00;;;;;;;;;;5032164;28;20018;-73
2023/07/05 12:57:33;;;;;;;1.85;1.10;;;;;;;;;;5021703;28;20040;-72
2023/07/05 12:59:59;;;;;;;1.83;1.00;;;;;;;;;;5015104;28;20087;-73
2023/07/05 13:02:30;;;;;;;0.98;0.90;;;;;;;;;;5027453;28;20037;-72
2023/07/05 13:04:57;;;;;;;2.40;1.30;;;;;;;;;;5033994;28;20036;-73
2023/07/05 13:07:25;;;;;;;1.23;0.80;;;;;;;;;;5034264;28;20056;-73
2023/07/05 13:09:53;;;;;;;2.13;1.10;;;;;;;;;;5030864;28;20018;-73
2023/07/05 13:12:22;;;;;;;0.80;0.80;;;;;;;;;;5029793;28;20041;-73
2023/07/05 13:14:48;;;;;;;;;;;;;;;;;;5029938;28;20032;-73
2023/07/05 13:17:17;;;;;;;1.60;1.05;;;;;;;;;;5028595;28;19909;-73
2023/07/05 13:19:50;;;;;;;1.90;0.95;;;;;;;;;;5031916;28;20040;-73
2023/07/05 13:22:21;;;;;;;2.75;1.30;;;;;;;;;;5025595;28;20046;-74
2023/07/05 13:24:49;;;;;;;2.40;1.23;;;;;;;;;;5031699;28;20500;-72
2023/07/05 13:27:16;;;;;;;1.58;1.17;;;;;;;;;;5034301;28;20022;-73
2023/07/05 13:29:42;;;;;;;1.48;1.02;;;;;;;;;;5034202;28;20393;-72
2023/07/05 13:32:23;;;;;;;1.10;1.00;;;;;;;;;;5034515;28;20021;-72
2023/07/05 13:34:49;;;;;;;1.10;1.00;;;;;;;;;;5033979;28;20037;-73
2023/07/05 13:37:18;;;;;;;2.13;1.17;;;;;;;;;;5034076;28;20026;-73
2023/07/05 13:39:45;;;;;;;1.75;1.10;;;;;;;;;;5034551;28;20029;-73
2023/07/05 13:42:12;;;;;;;2.05;1.15;;;;;;;;;;5034255;28;20081;-72
2023/07/05 13:44:38;;;;;;;1.50;1.15;;;;;;;;;;5033830;28;20488;-73
2023/07/05 13:47:06;;;;;;;1.05;0.95;;;;;;;;;;5030308;28;20021;-73
2023/07/05 13:49:32;;;;;;;2.38;1.10;;;;;;;;;;5016914;28;20026;-73
2023/07/05 13:52:00;;;;;;;1.73;1.02;;;;;;;;;;5030229;28;20059;-73
2023/07/05 13:54:26;;;;;;;3.20;0.80;;;;;;;;;;5034027;28;20040;-73
2023/07/05 13:56:53;;;;;;;1.98;1.10;;;;;;;;;;5031201;28;20500;-73
2023/07/05 13:59:20;;;;;;;1.92;0.90;;;;;;;;;;5032902;28;20397;-73
2023/07/05 14:01:50;;;;;;;2.25;1.00;;;;;;;;;;5032778;28;20049;-74
2023/07/05 14:04:17;;;;;;;1.25;0.98;;;;;;;;;;5032765;28;20025;-74
2023/07/05 14:06:43;;;;;;;1.20;1.10;;;;;;;;;;5033225;28;20040;-73
2023/07/05 14:09:11;;;;;;;2.60;1.00;;;;;;;;;;5032815;28;20034;-73
2023/07/05 14:11:38;;;;;;;2.30;1.10;;;;;;;;;;5033161;28;20039;-74
2023/07/05 14:14:05;;;;;;;3.33;1.02;;;;;;;;;;5033362;28;20039;-73
2023/07/05 14:16:33;;;;;;;1.25;1.05;;;;;;;;;;5033086;28;20033;-74
2023/07/05 14:18:59;;;;;;;2.80;1.08;;;;;;;;;;5032404;28;20025;-73
2023/07/05 14:21:30;;;;;;;3.28;1.10;;;;;;;;;;5033301;28;20028;-73
2023/07/05 14:23:57;;;;;;;1.00;0.90;;;;;;;;;;5033039;28;20029;-74
2023/07/05 14:26:24;;;;;;;2.50;1.08;;;;;;;;;;5032672;28;20541;-73
2023/07/05 14:28:52;;;;;;;2.67;1.45;;;;;;;;;;5028876;28;20018;-73
2023/07/05 14:31:18;;;;;;;1.55;1.05;;;;;;;;;;5029344;28;20044;-73
2023/07/05 14:33:45;;;;;;;2.88;1.15;;;;;;;;;;5027897;28;20042;-73
2023/07/05 14:36:12;;;;;;;4.28;1.17;;;;;;;;;;5020481;28;20026;-73
2023/07/05 14:38:39;;;;;;;2.53;1.08;;;;;;;;;;5024326;28;20021;-73
2023/07/05 14:41:07;;;;;;;1.52;1.00;;;;;;;;;;5026665;28;20041;-73
2023/07/05 14:43:33;;;;;;;1.30;1.00;;;;;;;;;;5026520;28;20409;-75
2023/07/05 14:45:59;;;;;;;2.10;1.17;;;;;;;;;;5011341;28;20068;-74
2023/07/05 14:48:26;;;;;;;2.85;1.17;;;;;;;;;;5028914;28;21323;-74
2023/07/05 14:50:52;;;;;;;1.50;1.13;;;;;;;;;;5028931;28;20436;-74
2023/07/05 14:53:23;;;;;;;2.40;1.13;;;;;;;;;;5032658;28;20482;-74